Argo — SVA2141 — position and weather

sailwx.info

Track history (hours):
 
Tides and Currents Weather Stations Pressure Air Temp Water Temp Dewpoint Dewpoint Depression Visibility Wind Speed Wind Dir Waves Ship Positions

Argo

Last reported at 2017-Oct-17 14:35 UTC. Time now 2017-Oct-17 20:44 UTC.
Position N 37°55' E 023°01'.

Length 24 m; draft 2 m.

Type: Passenger vessel. MMSI: 239383400.

Date/timePositionNaut miles runAvg speedWind from/ knotsBaromVisibWave heightAir tempDewpointWater temp
2017-Oct-17 14:35N 37°55' E 023°01'0 0.2
2017-Oct-17 14:31N 37°55' E 023°01'3 5.6
2017-Oct-17 13:58N 37°57' E 022°58'3 5.4
2017-Oct-17 13:28N 37°55' E 023°00'3 4.4
2017-Oct-17 12:50N 37°57' E 022°58'3 4.9
2017-Oct-17 12:16N 37°55' E 023°00'0 0.7
2017-Oct-17 12:01N 37°55' E 023°00'3 3.5
2017-Oct-17 11:08N 37°57' E 022°58'3 7.4
2017-Oct-17 10:44N 37°55' E 023°00'0 0.3
2017-Oct-17 10:30N 37°55' E 023°00'0 0.0
2017-Oct-17 09:27N 37°55' E 023°00'0 0.0
2017-Oct-17 09:00N 37°55' E 023°00'0 0.0
2017-Oct-17 08:31N 37°55' E 023°00'3 3.9
2017-Oct-17 07:43N 37°57' E 022°58'3 7.0
2017-Oct-17 07:18N 37°55' E 023°00'0 0.6
2017-Oct-17 07:01N 37°55' E 023°00'  
2017-Oct-12 10:20N 37°55' E 023°01'3 4.6
2017-Oct-12 09:39N 37°57' E 022°58'3 4.9
2017-Oct-12 09:04N 37°55' E 023°00'0 5.1
2017-Oct-12 09:00N 37°55' E 023°01'0 0.6
2017-Oct-12 08:30N 37°55' E 023°01'0 0.8
2017-Oct-12 08:00N 37°55' E 023°00'3 5.5
2017-Oct-12 07:30N 37°57' E 022°58'3 5.8
2017-Oct-12 07:00N 37°55' E 023°00'0 0.0
2017-Oct-12 06:30N 37°55' E 023°00'  
2017-Oct-09 08:46N 37°55' E 023°00'3 4.5
2017-Oct-09 08:07N 37°57' E 022°58'3 6.5
2017-Oct-09 07:41N 37°55' E 023°00'0 1.3
2017-Oct-09 07:30N 37°55' E 023°00'0 0.0
2017-Oct-09 07:00N 37°55' E 023°00'  
Track history (hours):
 
Tides and Currents Weather Stations Pressure Air Temp Water Temp Dewpoint Dewpoint Depression Visibility Wind Speed Wind Dir Waves Ship Positions

Argo

Last reported at 2017-Oct-17 14:35 UTC. Time now 2017-Oct-17 20:44 UTC.
Position N 37°55' E 023°01'.

Length 24 m; draft 2 m.

Type: Passenger vessel. MMSI: 239383400.

Date/timePositionNaut miles runAvg speedWind from/ knotsBaromVisibWave heightAir tempDewpointWater temp
2017-Oct-17 14:35N 37°55' E 023°01'0 0.2
2017-Oct-17 14:31N 37°55' E 023°01'3 5.6
2017-Oct-17 13:58N 37°57' E 022°58'3 5.4
2017-Oct-17 13:28N 37°55' E 023°00'3 4.4
2017-Oct-17 12:50N 37°57' E 022°58'3 4.9
2017-Oct-17 12:16N 37°55' E 023°00'0 0.7
2017-Oct-17 12:01N 37°55' E 023°00'3 3.5
2017-Oct-17 11:08N 37°57' E 022°58'3 7.4
2017-Oct-17 10:44N 37°55' E 023°00'0 0.3
2017-Oct-17 10:30N 37°55' E 023°00'0 0.0
2017-Oct-17 09:27N 37°55' E 023°00'0 0.0
2017-Oct-17 09:00N 37°55' E 023°00'0 0.0
2017-Oct-17 08:31N 37°55' E 023°00'3 3.9
2017-Oct-17 07:43N 37°57' E 022°58'3 7.0
2017-Oct-17 07:18N 37°55' E 023°00'0 0.6
2017-Oct-17 07:01N 37°55' E 023°00'  
2017-Oct-12 10:20N 37°55' E 023°01'3 4.6
2017-Oct-12 09:39N 37°57' E 022°58'3 4.9
2017-Oct-12 09:04N 37°55' E 023°00'0 5.1
2017-Oct-12 09:00N 37°55' E 023°01'0 0.6
2017-Oct-12 08:30N 37°55' E 023°01'0 0.8
2017-Oct-12 08:00N 37°55' E 023°00'3 5.5
2017-Oct-12 07:30N 37°57' E 022°58'3 5.8
2017-Oct-12 07:00N 37°55' E 023°00'0 0.0
2017-Oct-12 06:30N 37°55' E 023°00'  
2017-Oct-09 08:46N 37°55' E 023°00'3 4.5
2017-Oct-09 08:07N 37°57' E 022°58'3 6.5
2017-Oct-09 07:41N 37°55' E 023°00'0 1.3
2017-Oct-09 07:30N 37°55' E 023°00'0 0.0
2017-Oct-09 07:00N 37°55' E 023°00'  

Dump ship's entire track history